sensor_id;sensor_type;location;lat;lon;timestamp;P1;durP1;ratioP1;P2;durP2;ratioP2
48092;SDS011;33873;47.442;18.902;2022-07-29T00:01:41;5.93;;;3.03;;
48092;SDS011;33873;47.442;18.902;2022-07-29T00:04:10;8.07;;;3.55;;
48092;SDS011;33873;47.442;18.902;2022-07-29T00:06:38;6.40;;;3.12;;
48092;SDS011;33873;47.442;18.902;2022-07-29T00:09:06;5.97;;;3.62;;
48092;SDS011;33873;47.442;18.902;2022-07-29T00:11:34;6.95;;;3.42;;
48092;SDS011;33873;47.442;18.902;2022-07-29T00:14:01;6.43;;;3.17;;
48092;SDS011;33873;47.442;18.902;2022-07-29T00:16:29;6.28;;;3.65;;
48092;SDS011;33873;47.442;18.902;2022-07-29T00:18:57;8.05;;;3.85;;
48092;SDS011;33873;47.442;18.902;2022-07-29T00:21:28;5.93;;;3.30;;
48092;SDS011;33873;47.442;18.902;2022-07-29T00:23:56;7.22;;;4.12;;
48092;SDS011;33873;47.442;18.902;2022-07-29T00:26:23;6.50;;;4.00;;
48092;SDS011;33873;47.442;18.902;2022-07-29T00:28:51;10.80;;;3.62;;
48092;SDS011;33873;47.442;18.902;2022-07-29T00:31:39;6.45;;;3.47;;
48092;SDS011;33873;47.442;18.902;2022-07-29T00:34:06;7.10;;;3.92;;
48092;SDS011;33873;47.442;18.902;2022-07-29T00:36:54;6.55;;;3.62;;
48092;SDS011;33873;47.442;18.902;2022-07-29T00:39:22;6.57;;;3.47;;
48092;SDS011;33873;47.442;18.902;2022-07-29T00:41:49;6.45;;;3.65;;
48092;SDS011;33873;47.442;18.902;2022-07-29T00:44:17;10.77;;;3.95;;
48092;SDS011;33873;47.442;18.902;2022-07-29T00:46:45;6.00;;;3.95;;
48092;SDS011;33873;47.442;18.902;2022-07-29T00:49:12;5.70;;;3.75;;
48092;SDS011;33873;47.442;18.902;2022-07-29T00:51:40;7.25;;;3.40;;
48092;SDS011;33873;47.442;18.902;2022-07-29T00:54:08;5.70;;;3.72;;
48092;SDS011;33873;47.442;18.902;2022-07-29T00:56:35;8.02;;;4.03;;
48092;SDS011;33873;47.442;18.902;2022-07-29T00:59:03;7.60;;;4.20;;
48092;SDS011;33873;47.442;18.902;2022-07-29T01:01:31;5.60;;;3.50;;
48092;SDS011;33873;47.442;18.902;2022-07-29T01:03:58;7.55;;;3.55;;
48092;SDS011;33873;47.442;18.902;2022-07-29T01:06:26;7.62;;;4.37;;
48092;SDS011;33873;47.442;18.902;2022-07-29T01:08:54;7.22;;;3.72;;
48092;SDS011;33873;47.442;18.902;2022-07-29T01:11:22;7.50;;;4.30;;
48092;SDS011;33873;47.442;18.902;2022-07-29T01:13:50;5.53;;;3.50;;
48092;SDS011;33873;47.442;18.902;2022-07-29T01:16:24;7.57;;;4.25;;
48092;SDS011;33873;47.442;18.902;2022-07-29T01:19:00;8.95;;;3.97;;
48092;SDS011;33873;47.442;18.902;2022-07-29T01:21:45;7.45;;;3.80;;
48092;SDS011;33873;47.442;18.902;2022-07-29T01:29:43;6.87;;;4.03;;
48092;SDS011;33873;47.442;18.902;2022-07-29T01:32:18;7.18;;;3.53;;
48092;SDS011;33873;47.442;18.902;2022-07-29T01:38:04;6.65;;;4.18;;
48092;SDS011;33873;47.442;18.902;2022-07-29T01:40:36;8.00;;;3.95;;
48092;SDS011;33873;47.442;18.902;2022-07-29T01:43:11;6.90;;;3.92;;
48092;SDS011;33873;47.442;18.902;2022-07-29T01:45:43;5.40;;;4.00;;
48092;SDS011;33873;47.442;18.902;2022-07-29T01:48:24;8.68;;;4.45;;
48092;SDS011;33873;47.442;18.902;2022-07-29T01:51:05;7.05;;;3.90;;
48092;SDS011;33873;47.442;18.902;2022-07-29T01:54:14;6.18;;;4.05;;
48092;SDS011;33873;47.442;18.902;2022-07-29T01:56:47;7.78;;;4.05;;
48092;SDS011;33873;47.442;18.902;2022-07-29T01:59:16;8.20;;;3.78;;
48092;SDS011;33873;47.442;18.902;2022-07-29T02:01:47;5.90;;;3.72;;
48092;SDS011;33873;47.442;18.902;2022-07-29T02:04:20;7.68;;;4.20;;
48092;SDS011;33873;47.442;18.902;2022-07-29T02:07:01;5.28;;;3.78;;
48092;SDS011;33873;47.442;18.902;2022-07-29T02:09:30;6.12;;;4.07;;
48092;SDS011;33873;47.442;18.902;2022-07-29T02:11:59;8.57;;;4.55;;
48092;SDS011;33873;47.442;18.902;2022-07-29T02:14:29;5.97;;;3.60;;
48092;SDS011;33873;47.442;18.902;2022-07-29T02:17:00;8.15;;;3.83;;
48092;SDS011;33873;47.442;18.902;2022-07-29T02:19:29;6.70;;;4.10;;
48092;SDS011;33873;47.442;18.902;2022-07-29T02:21:59;6.47;;;3.72;;
48092;SDS011;33873;47.442;18.902;2022-07-29T02:24:28;5.57;;;3.55;;
48092;SDS011;33873;47.442;18.902;2022-07-29T02:26:57;6.97;;;3.75;;
48092;SDS011;33873;47.442;18.902;2022-07-29T02:29:27;6.55;;;4.18;;
48092;SDS011;33873;47.442;18.902;2022-07-29T02:31:56;7.18;;;4.22;;
48092;SDS011;33873;47.442;18.902;2022-07-29T02:34:25;7.07;;;4.20;;
48092;SDS011;33873;47.442;18.902;2022-07-29T02:36:53;7.62;;;4.43;;
48092;SDS011;33873;47.442;18.902;2022-07-29T02:39:22;10.68;;;4.47;;
48092;SDS011;33873;47.442;18.902;2022-07-29T02:41:51;5.57;;;3.85;;
48092;SDS011;33873;47.442;18.902;2022-07-29T02:44:23;6.72;;;3.65;;
48092;SDS011;33873;47.442;18.902;2022-07-29T02:49:50;6.90;;;4.82;;
48092;SDS011;33873;47.442;18.902;2022-07-29T02:52:28;6.45;;;4.15;;
48092;SDS011;33873;47.442;18.902;2022-07-29T02:57:51;7.12;;;4.05;;
48092;SDS011;33873;47.442;18.902;2022-07-29T03:00:26;9.70;;;3.75;;
48092;SDS011;33873;47.442;18.902;2022-07-29T03:02:56;7.30;;;4.35;;
48092;SDS011;33873;47.442;18.902;2022-07-29T03:05:27;7.18;;;4.30;;
48092;SDS011;33873;47.442;18.902;2022-07-29T03:07:55;5.53;;;3.78;;
48092;SDS011;33873;47.442;18.902;2022-07-29T03:10:28;7.00;;;4.45;;
48092;SDS011;33873;47.442;18.902;2022-07-29T03:12:55;7.20;;;4.53;;
48092;SDS011;33873;47.442;18.902;2022-07-29T03:15:25;6.87;;;4.22;;
48092;SDS011;33873;47.442;18.902;2022-07-29T03:17:53;7.47;;;4.57;;
48092;SDS011;33873;47.442;18.902;2022-07-29T03:20:22;8.77;;;5.10;;
48092;SDS011;33873;47.442;18.902;2022-07-29T03:22:50;7.65;;;5.03;;
48092;SDS011;33873;47.442;18.902;2022-07-29T03:25:18;6.37;;;4.40;;
48092;SDS011;33873;47.442;18.902;2022-07-29T03:27:47;9.00;;;4.15;;
48092;SDS011;33873;47.442;18.902;2022-07-29T03:30:15;6.65;;;4.60;;
48092;SDS011;33873;47.442;18.902;2022-07-29T03:32:49;7.72;;;4.68;;
48092;SDS011;33873;47.442;18.902;2022-07-29T03:35:19;7.95;;;4.53;;
48092;SDS011;33873;47.442;18.902;2022-07-29T03:37:47;6.60;;;4.30;;
48092;SDS011;33873;47.442;18.902;2022-07-29T03:40:19;7.15;;;4.55;;
48092;SDS011;33873;47.442;18.902;2022-07-29T03:42:50;13.82;;;4.78;;
48092;SDS011;33873;47.442;18.902;2022-07-29T03:45:19;7.55;;;4.80;;
48092;SDS011;33873;47.442;18.902;2022-07-29T03:47:50;6.75;;;4.45;;
48092;SDS011;33873;47.442;18.902;2022-07-29T03:50:28;8.73;;;4.75;;
48092;SDS011;33873;47.442;18.902;2022-07-29T03:52:57;10.48;;;5.10;;
48092;SDS011;33873;47.442;18.902;2022-07-29T03:55:25;8.73;;;4.82;;
48092;SDS011;33873;47.442;18.902;2022-07-29T03:57:53;7.28;;;5.07;;
48092;SDS011;33873;47.442;18.902;2022-07-29T04:00:23;10.70;;;4.30;;
48092;SDS011;33873;47.442;18.902;2022-07-29T04:02:51;7.78;;;4.32;;
48092;SDS011;33873;47.442;18.902;2022-07-29T04:05:19;7.43;;;4.32;;
48092;SDS011;33873;47.442;18.902;2022-07-29T04:07:47;7.82;;;4.28;;
48092;SDS011;33873;47.442;18.902;2022-07-29T04:10:15;7.85;;;4.93;;
48092;SDS011;33873;47.442;18.902;2022-07-29T04:12:56;6.70;;;4.47;;
48092;SDS011;33873;47.442;18.902;2022-07-29T04:15:24;8.88;;;4.82;;
48092;SDS011;33873;47.442;18.902;2022-07-29T04:17:56;7.90;;;4.60;;
48092;SDS011;33873;47.442;18.902;2022-07-29T04:20:24;6.28;;;4.25;;
48092;SDS011;33873;47.442;18.902;2022-07-29T04:22:52;6.47;;;4.35;;
48092;SDS011;33873;47.442;18.902;2022-07-29T04:25:20;6.30;;;4.43;;
48092;SDS011;33873;47.442;18.902;2022-07-29T04:27:48;5.90;;;4.22;;
48092;SDS011;33873;47.442;18.902;2022-07-29T04:30:43;9.50;;;4.43;;
48092;SDS011;33873;47.442;18.902;2022-07-29T04:33:10;9.02;;;4.40;;
48092;SDS011;33873;47.442;18.902;2022-07-29T04:35:39;7.53;;;4.22;;
48092;SDS011;33873;47.442;18.902;2022-07-29T04:38:18;8.70;;;5.00;;
48092;SDS011;33873;47.442;18.902;2022-07-29T04:40:46;6.78;;;4.72;;
48092;SDS011;33873;47.442;18.902;2022-07-29T04:43:15;6.30;;;4.30;;
48092;SDS011;33873;47.442;18.902;2022-07-29T04:45:49;6.55;;;4.12;;
48092;SDS011;33873;47.442;18.902;2022-07-29T04:48:17;8.55;;;4.72;;
48092;SDS011;33873;47.442;18.902;2022-07-29T04:50:44;6.47;;;4.53;;
48092;SDS011;33873;47.442;18.902;2022-07-29T04:53:12;8.15;;;4.30;;
48092;SDS011;33873;47.442;18.902;2022-07-29T04:55:40;9.88;;;4.87;;
48092;SDS011;33873;47.442;18.902;2022-07-29T04:58:07;6.65;;;4.80;;
48092;SDS011;33873;47.442;18.902;2022-07-29T05:00:35;7.15;;;4.18;;
48092;SDS011;33873;47.442;18.902;2022-07-29T05:03:03;6.22;;;4.50;;
48092;SDS011;33873;47.442;18.902;2022-07-29T05:05:31;8.65;;;4.53;;
48092;SDS011;33873;47.442;18.902;2022-07-29T05:07:58;6.60;;;3.78;;
48092;SDS011;33873;47.442;18.902;2022-07-29T05:10:26;7.72;;;4.30;;
48092;SDS011;33873;47.442;18.902;2022-07-29T05:12:53;7.00;;;4.30;;
48092;SDS011;33873;47.442;18.902;2022-07-29T05:15:21;8.75;;;4.25;;
48092;SDS011;33873;47.442;18.902;2022-07-29T05:17:49;7.65;;;4.37;;
48092;SDS011;33873;47.442;18.902;2022-07-29T05:20:17;6.72;;;4.18;;
48092;SDS011;33873;47.442;18.902;2022-07-29T05:22:46;8.35;;;4.40;;
48092;SDS011;33873;47.442;18.902;2022-07-29T05:25:13;8.63;;;4.70;;
48092;SDS011;33873;47.442;18.902;2022-07-29T05:27:41;7.22;;;4.50;;
48092;SDS011;33873;47.442;18.902;2022-07-29T05:30:09;6.82;;;4.53;;
48092;SDS011;33873;47.442;18.902;2022-07-29T05:32:36;6.50;;;4.05;;
48092;SDS011;33873;47.442;18.902;2022-07-29T05:35:04;8.27;;;4.50;;
48092;SDS011;33873;47.442;18.902;2022-07-29T05:37:32;7.20;;;4.95;;
48092;SDS011;33873;47.442;18.902;2022-07-29T05:40:00;8.20;;;4.82;;
48092;SDS011;33873;47.442;18.902;2022-07-29T05:42:28;5.82;;;4.25;;
48092;SDS011;33873;47.442;18.902;2022-07-29T05:44:56;7.90;;;4.70;;
48092;SDS011;33873;47.442;18.902;2022-07-29T05:47:24;10.77;;;5.75;;
48092;SDS011;33873;47.442;18.902;2022-07-29T05:49:51;7.30;;;4.28;;
48092;SDS011;33873;47.442;18.902;2022-07-29T05:52:20;6.97;;;4.45;;
48092;SDS011;33873;47.442;18.902;2022-07-29T05:54:48;6.95;;;4.68;;
48092;SDS011;33873;47.442;18.902;2022-07-29T05:57:19;7.37;;;4.75;;
48092;SDS011;33873;47.442;18.902;2022-07-29T05:59:48;8.55;;;5.00;;
48092;SDS011;33873;47.442;18.902;2022-07-29T06:02:16;7.78;;;4.75;;
48092;SDS011;33873;47.442;18.902;2022-07-29T06:04:44;7.87;;;5.35;;
48092;SDS011;33873;47.442;18.902;2022-07-29T06:07:12;7.05;;;4.82;;
48092;SDS011;33873;47.442;18.902;2022-07-29T06:09:40;7.53;;;4.90;;
48092;SDS011;33873;47.442;18.902;2022-07-29T06:12:08;6.95;;;4.43;;
48092;SDS011;33873;47.442;18.902;2022-07-29T06:14:36;8.07;;;4.68;;
48092;SDS011;33873;47.442;18.902;2022-07-29T06:17:04;9.93;;;4.82;;
48092;SDS011;33873;47.442;18.902;2022-07-29T06:19:35;7.07;;;4.60;;
48092;SDS011;33873;47.442;18.902;2022-07-29T06:22:03;9.15;;;4.82;;
48092;SDS011;33873;47.442;18.902;2022-07-29T06:24:31;7.45;;;5.00;;
48092;SDS011;33873;47.442;18.902;2022-07-29T06:26:59;7.20;;;4.97;;
48092;SDS011;33873;47.442;18.902;2022-07-29T06:29:26;9.65;;;4.68;;
48092;SDS011;33873;47.442;18.902;2022-07-29T06:31:54;6.55;;;4.40;;
48092;SDS011;33873;47.442;18.902;2022-07-29T06:34:22;9.52;;;5.12;;
48092;SDS011;33873;47.442;18.902;2022-07-29T06:36:49;6.53;;;4.50;;
48092;SDS011;33873;47.442;18.902;2022-07-29T06:39:18;10.05;;;4.90;;
48092;SDS011;33873;47.442;18.902;2022-07-29T06:41:46;13.50;;;5.85;;
48092;SDS011;33873;47.442;18.902;2022-07-29T06:44:16;7.53;;;5.20;;
48092;SDS011;33873;47.442;18.902;2022-07-29T06:46:45;11.60;;;5.43;;
48092;SDS011;33873;47.442;18.902;2022-07-29T06:49:16;7.87;;;4.85;;
48092;SDS011;33873;47.442;18.902;2022-07-29T06:51:44;7.60;;;5.07;;
48092;SDS011;33873;47.442;18.902;2022-07-29T06:54:11;9.25;;;4.65;;
48092;SDS011;33873;47.442;18.902;2022-07-29T06:56:39;14.27;;;5.25;;
48092;SDS011;33873;47.442;18.902;2022-07-29T06:59:09;11.12;;;4.95;;
48092;SDS011;33873;47.442;18.902;2022-07-29T07:01:39;13.80;;;4.87;;
48092;SDS011;33873;47.442;18.902;2022-07-29T07:04:08;9.55;;;4.93;;
48092;SDS011;33873;47.442;18.902;2022-07-29T07:06:36;9.05;;;4.78;;
48092;SDS011;33873;47.442;18.902;2022-07-29T07:09:04;9.32;;;4.70;;
48092;SDS011;33873;47.442;18.902;2022-07-29T07:11:32;10.07;;;4.57;;
48092;SDS011;33873;47.442;18.902;2022-07-29T07:14:00;7.95;;;4.15;;
48092;SDS011;33873;47.442;18.902;2022-07-29T07:16:40;9.32;;;5.03;;
48092;SDS011;33873;47.442;18.902;2022-07-29T07:19:08;9.57;;;4.87;;
48092;SDS011;33873;47.442;18.902;2022-07-29T07:21:36;11.52;;;5.45;;
48092;SDS011;33873;47.442;18.902;2022-07-29T07:24:04;10.13;;;5.03;;
48092;SDS011;33873;47.442;18.902;2022-07-29T07:26:32;10.10;;;4.87;;
48092;SDS011;33873;47.442;18.902;2022-07-29T07:28:59;11.00;;;4.30;;
48092;SDS011;33873;47.442;18.902;2022-07-29T07:31:27;10.20;;;4.72;;
48092;SDS011;33873;47.442;18.902;2022-07-29T07:33:55;7.47;;;4.57;;
48092;SDS011;33873;47.442;18.902;2022-07-29T07:36:23;8.38;;;4.55;;
48092;SDS011;33873;47.442;18.902;2022-07-29T07:38:51;9.57;;;4.90;;
48092;SDS011;33873;47.442;18.902;2022-07-29T07:41:19;9.40;;;4.55;;
48092;SDS011;33873;47.442;18.902;2022-07-29T07:43:48;8.73;;;5.03;;
48092;SDS011;33873;47.442;18.902;2022-07-29T07:46:15;10.43;;;4.90;;
48092;SDS011;33873;47.442;18.902;2022-07-29T07:48:43;8.73;;;4.70;;
48092;SDS011;33873;47.442;18.902;2022-07-29T07:51:11;11.10;;;4.62;;
48092;SDS011;33873;47.442;18.902;2022-07-29T07:53:39;12.75;;;5.28;;
48092;SDS011;33873;47.442;18.902;2022-07-29T07:56:06;8.50;;;5.28;;
48092;SDS011;33873;47.442;18.902;2022-07-29T07:58:38;6.90;;;4.68;;
48092;SDS011;33873;47.442;18.902;2022-07-29T08:01:06;7.37;;;5.05;;
48092;SDS011;33873;47.442;18.902;2022-07-29T08:03:35;8.60;;;5.00;;
48092;SDS011;33873;47.442;18.902;2022-07-29T08:06:03;7.75;;;4.93;;
48092;SDS011;33873;47.442;18.902;2022-07-29T08:08:30;7.62;;;4.60;;
48092;SDS011;33873;47.442;18.902;2022-07-29T08:10:58;8.02;;;4.85;;
48092;SDS011;33873;47.442;18.902;2022-07-29T08:13:35;8.55;;;4.85;;
48092;SDS011;33873;47.442;18.902;2022-07-29T08:16:05;8.52;;;5.03;;
48092;SDS011;33873;47.442;18.902;2022-07-29T08:18:40;8.57;;;5.07;;
48092;SDS011;33873;47.442;18.902;2022-07-29T08:21:09;8.43;;;5.28;;
48092;SDS011;33873;47.442;18.902;2022-07-29T08:23:41;12.05;;;4.72;;
48092;SDS011;33873;47.442;18.902;2022-07-29T08:26:24;7.50;;;4.87;;
48092;SDS011;33873;47.442;18.902;2022-07-29T08:28:51;9.30;;;5.22;;
48092;SDS011;33873;47.442;18.902;2022-07-29T08:31:19;7.85;;;5.25;;
48092;SDS011;33873;47.442;18.902;2022-07-29T08:33:47;11.30;;;4.85;;
48092;SDS011;33873;47.442;18.902;2022-07-29T08:36:14;9.27;;;5.25;;
48092;SDS011;33873;47.442;18.902;2022-07-29T08:38:42;6.90;;;5.12;;
48092;SDS011;33873;47.442;18.902;2022-07-29T08:41:09;11.18;;;5.65;;
48092;SDS011;33873;47.442;18.902;2022-07-29T08:43:37;8.68;;;4.55;;
48092;SDS011;33873;47.442;18.902;2022-07-29T08:46:08;8.35;;;4.47;;
48092;SDS011;33873;47.442;18.902;2022-07-29T08:48:36;8.18;;;4.80;;
48092;SDS011;33873;47.442;18.902;2022-07-29T08:51:03;7.40;;;4.45;;
48092;SDS011;33873;47.442;18.902;2022-07-29T08:53:32;8.77;;;4.60;;
48092;SDS011;33873;47.442;18.902;2022-07-29T08:56:00;9.10;;;4.87;;
48092;SDS011;33873;47.442;18.902;2022-07-29T08:58:31;10.55;;;5.07;;
48092;SDS011;33873;47.442;18.902;2022-07-29T09:03:33;9.25;;;3.83;;
48092;SDS011;33873;47.442;18.902;2022-07-29T09:06:03;7.28;;;4.55;;
48092;SDS011;33873;47.442;18.902;2022-07-29T09:08:32;10.18;;;5.60;;
48092;SDS011;33873;47.442;18.902;2022-07-29T09:11:03;9.20;;;4.60;;
48092;SDS011;33873;47.442;18.902;2022-07-29T09:13:32;5.47;;;3.78;;
48092;SDS011;33873;47.442;18.902;2022-07-29T09:15:59;6.32;;;4.37;;
48092;SDS011;33873;47.442;18.902;2022-07-29T09:18:39;5.90;;;4.15;;
48092;SDS011;33873;47.442;18.902;2022-07-29T09:21:08;7.60;;;4.50;;
48092;SDS011;33873;47.442;18.902;2022-07-29T09:24:03;9.25;;;4.78;;
48092;SDS011;33873;47.442;18.902;2022-07-29T09:26:37;7.22;;;4.25;;
48092;SDS011;33873;47.442;18.902;2022-07-29T09:29:12;7.90;;;4.00;;
48092;SDS011;33873;47.442;18.902;2022-07-29T09:31:41;9.77;;;4.30;;
48092;SDS011;33873;47.442;18.902;2022-07-29T09:34:14;8.33;;;4.40;;
48092;SDS011;33873;47.442;18.902;2022-07-29T09:36:47;7.32;;;4.25;;
48092;SDS011;33873;47.442;18.902;2022-07-29T09:39:16;6.60;;;4.37;;
48092;SDS011;33873;47.442;18.902;2022-07-29T09:41:55;6.00;;;4.05;;
48092;SDS011;33873;47.442;18.902;2022-07-29T09:44:24;6.90;;;3.72;;
48092;SDS011;33873;47.442;18.902;2022-07-29T09:46:56;7.35;;;3.65;;
48092;SDS011;33873;47.442;18.902;2022-07-29T09:49:35;6.90;;;4.40;;
48092;SDS011;33873;47.442;18.902;2022-07-29T09:52:04;7.20;;;4.40;;
48092;SDS011;33873;47.442;18.902;2022-07-29T09:54:34;8.98;;;3.87;;
48092;SDS011;33873;47.442;18.902;2022-07-29T09:57:06;5.30;;;3.20;;
48092;SDS011;33873;47.442;18.902;2022-07-29T09:59:36;11.00;;;4.00;;
48092;SDS011;33873;47.442;18.902;2022-07-29T10:02:16;9.07;;;3.92;;
48092;SDS011;33873;47.442;18.902;2022-07-29T10:04:50;8.30;;;4.10;;
48092;SDS011;33873;47.442;18.902;2022-07-29T10:07:18;5.78;;;3.62;;
48092;SDS011;33873;47.442;18.902;2022-07-29T10:09:52;7.90;;;3.72;;
48092;SDS011;33873;47.442;18.902;2022-07-29T10:12:22;6.87;;;3.92;;
48092;SDS011;33873;47.442;18.902;2022-07-29T10:14:50;6.57;;;3.55;;
48092;SDS011;33873;47.442;18.902;2022-07-29T10:17:18;6.72;;;3.35;;
48092;SDS011;33873;47.442;18.902;2022-07-29T10:19:46;8.10;;;3.65;;
48092;SDS011;33873;47.442;18.902;2022-07-29T10:22:14;10.60;;;3.87;;
48092;SDS011;33873;47.442;18.902;2022-07-29T10:25:02;6.00;;;3.47;;
48092;SDS011;33873;47.442;18.902;2022-07-29T10:27:30;5.32;;;3.33;;
48092;SDS011;33873;47.442;18.902;2022-07-29T10:29:59;9.88;;;2.80;;
48092;SDS011;33873;47.442;18.902;2022-07-29T10:32:40;9.73;;;3.20;;
48092;SDS011;33873;47.442;18.902;2022-07-29T10:44:17;5.40;;;3.15;;
48092;SDS011;33873;47.442;18.902;2022-07-29T10:46:50;8.77;;;3.78;;
48092;SDS011;33873;47.442;18.902;2022-07-29T10:49:20;9.35;;;3.83;;
48092;SDS011;33873;47.442;18.902;2022-07-29T10:59:43;6.78;;;3.03;;
48092;SDS011;33873;47.442;18.902;2022-07-29T11:05:10;7.57;;;3.37;;
48092;SDS011;33873;47.442;18.902;2022-07-29T11:10:47;5.60;;;2.92;;
48092;SDS011;33873;47.442;18.902;2022-07-29T11:13:58;7.95;;;3.25;;
48092;SDS011;33873;47.442;18.902;2022-07-29T11:16:09;7.90;;;3.20;;
48092;SDS011;33873;47.442;18.902;2022-07-29T11:19:18;5.22;;;2.87;;
48092;SDS011;33873;47.442;18.902;2022-07-29T11:21:41;5.75;;;2.95;;
48092;SDS011;33873;47.442;18.902;2022-07-29T11:24:22;6.30;;;3.00;;
48092;SDS011;33873;47.442;18.902;2022-07-29T11:29:51;7.80;;;3.47;;
48092;SDS011;33873;47.442;18.902;2022-07-29T11:32:23;6.40;;;2.72;;
48092;SDS011;33873;47.442;18.902;2022-07-29T11:35:11;6.03;;;2.72;;
48092;SDS011;33873;47.442;18.902;2022-07-29T11:37:45;5.70;;;3.30;;
48092;SDS011;33873;47.442;18.902;2022-07-29T11:40:22;7.72;;;3.30;;
48092;SDS011;33873;47.442;18.902;2022-07-29T11:42:49;5.68;;;3.05;;
48092;SDS011;33873;47.442;18.902;2022-07-29T11:45:19;7.25;;;3.30;;
48092;SDS011;33873;47.442;18.902;2022-07-29T11:48:14;5.12;;;3.10;;
48092;SDS011;33873;47.442;18.902;2022-07-29T11:51:02;6.73;;;3.07;;
48092;SDS011;33873;47.442;18.902;2022-07-29T11:53:38;6.45;;;3.42;;
48092;SDS011;33873;47.442;18.902;2022-07-29T11:56:07;5.78;;;3.42;;
48092;SDS011;33873;47.442;18.902;2022-07-29T11:58:36;8.25;;;2.90;;
48092;SDS011;33873;47.442;18.902;2022-07-29T12:01:04;9.95;;;4.10;;
48092;SDS011;33873;47.442;18.902;2022-07-29T12:03:33;9.18;;;3.67;;
48092;SDS011;33873;47.442;18.902;2022-07-29T12:06:21;10.00;;;3.37;;
48092;SDS011;33873;47.442;18.902;2022-07-29T12:08:49;7.03;;;3.60;;
48092;SDS011;33873;47.442;18.902;2022-07-29T12:11:17;6.87;;;3.28;;
48092;SDS011;33873;47.442;18.902;2022-07-29T12:13:49;4.95;;;2.95;;
48092;SDS011;33873;47.442;18.902;2022-07-29T12:16:19;7.07;;;3.53;;
48092;SDS011;33873;47.442;18.902;2022-07-29T12:18:59;6.82;;;3.37;;
48092;SDS011;33873;47.442;18.902;2022-07-29T12:21:29;6.32;;;3.08;;
48092;SDS011;33873;47.442;18.902;2022-07-29T12:24:25;6.55;;;3.28;;
48092;SDS011;33873;47.442;18.902;2022-07-29T12:26:55;5.72;;;3.10;;
48092;SDS011;33873;47.442;18.902;2022-07-29T12:29:23;6.68;;;3.35;;
48092;SDS011;33873;47.442;18.902;2022-07-29T12:32:02;5.95;;;3.45;;
48092;SDS011;33873;47.442;18.902;2022-07-29T12:34:41;5.22;;;2.83;;
48092;SDS011;33873;47.442;18.902;2022-07-29T12:37:09;7.32;;;3.03;;
48092;SDS011;33873;47.442;18.902;2022-07-29T12:39:38;6.53;;;3.15;;
48092;SDS011;33873;47.442;18.902;2022-07-29T12:42:15;7.70;;;3.08;;
48092;SDS011;33873;47.442;18.902;2022-07-29T12:44:45;8.18;;;3.15;;
48092;SDS011;33873;47.442;18.902;2022-07-29T12:47:16;5.30;;;3.40;;
48092;SDS011;33873;47.442;18.902;2022-07-29T12:49:46;5.78;;;2.87;;
48092;SDS011;33873;47.442;18.902;2022-07-29T12:52:27;4.93;;;3.03;;
48092;SDS011;33873;47.442;18.902;2022-07-29T12:54:59;5.05;;;2.97;;
48092;SDS011;33873;47.442;18.902;2022-07-29T12:57:28;8.65;;;3.20;;
48092;SDS011;33873;47.442;18.902;2022-07-29T13:02:35;3.97;;;2.75;;
48092;SDS011;33873;47.442;18.902;2022-07-29T13:05:04;5.90;;;3.10;;
48092;SDS011;33873;47.442;18.902;2022-07-29T13:07:34;6.40;;;3.40;;
48092;SDS011;33873;47.442;18.902;2022-07-29T13:10:22;10.68;;;3.37;;
48092;SDS011;33873;47.442;18.902;2022-07-29T13:15:39;7.97;;;3.80;;
48092;SDS011;33873;47.442;18.902;2022-07-29T13:20:56;5.47;;;2.90;;
48092;SDS011;33873;47.442;18.902;2022-07-29T13:23:24;6.30;;;2.87;;
48092;SDS011;33873;47.442;18.902;2022-07-29T13:25:51;4.40;;;2.87;;
48092;SDS011;33873;47.442;18.902;2022-07-29T13:28:21;5.28;;;2.72;;
48092;SDS011;33873;47.442;18.902;2022-07-29T13:30:49;6.15;;;3.20;;
48092;SDS011;33873;47.442;18.902;2022-07-29T13:33:16;5.90;;;2.92;;
48092;SDS011;33873;47.442;18.902;2022-07-29T13:35:44;5.32;;;2.90;;
48092;SDS011;33873;47.442;18.902;2022-07-29T13:38:12;7.85;;;2.97;;
48092;SDS011;33873;47.442;18.902;2022-07-29T13:40:40;5.32;;;3.08;;
48092;SDS011;33873;47.442;18.902;2022-07-29T13:43:09;5.45;;;3.28;;
48092;SDS011;33873;47.442;18.902;2022-07-29T13:45:37;7.68;;;3.00;;
48092;SDS011;33873;47.442;18.902;2022-07-29T13:48:04;23.87;;;4.20;;
48092;SDS011;33873;47.442;18.902;2022-07-29T13:50:33;4.97;;;3.08;;
48092;SDS011;33873;47.442;18.902;2022-07-29T13:53:01;5.57;;;3.12;;
48092;SDS011;33873;47.442;18.902;2022-07-29T13:55:28;6.53;;;3.10;;
48092;SDS011;33873;47.442;18.902;2022-07-29T13:57:56;8.82;;;4.25;;
48092;SDS011;33873;47.442;18.902;2022-07-29T14:00:24;4.97;;;2.80;;
48092;SDS011;33873;47.442;18.902;2022-07-29T14:02:53;5.53;;;3.00;;
48092;SDS011;33873;47.442;18.902;2022-07-29T14:05:21;6.18;;;3.40;;
48092;SDS011;33873;47.442;18.902;2022-07-29T14:07:48;6.32;;;3.37;;
48092;SDS011;33873;47.442;18.902;2022-07-29T14:10:16;5.62;;;2.83;;
48092;SDS011;33873;47.442;18.902;2022-07-29T14:12:46;6.28;;;3.20;;
48092;SDS011;33873;47.442;18.902;2022-07-29T14:15:13;6.35;;;2.92;;
48092;SDS011;33873;47.442;18.902;2022-07-29T14:17:41;9.52;;;3.20;;
48092;SDS011;33873;47.442;18.902;2022-07-29T14:20:09;4.90;;;3.08;;
48092;SDS011;33873;47.442;18.902;2022-07-29T14:22:37;5.50;;;3.12;;
48092;SDS011;33873;47.442;18.902;2022-07-29T14:25:09;5.78;;;2.95;;
48092;SDS011;33873;47.442;18.902;2022-07-29T14:27:41;5.75;;;3.12;;
48092;SDS011;33873;47.442;18.902;2022-07-29T14:30:10;6.05;;;3.50;;
48092;SDS011;33873;47.442;18.902;2022-07-29T14:32:38;6.93;;;3.10;;
48092;SDS011;33873;47.442;18.902;2022-07-29T14:35:06;7.35;;;3.47;;
48092;SDS011;33873;47.442;18.902;2022-07-29T14:37:35;5.65;;;3.10;;
48092;SDS011;33873;47.442;18.902;2022-07-29T14:40:07;6.78;;;3.25;;
48092;SDS011;33873;47.442;18.902;2022-07-29T14:42:36;8.50;;;3.20;;
48092;SDS011;33873;47.442;18.902;2022-07-29T14:45:05;8.30;;;3.20;;
48092;SDS011;33873;47.442;18.902;2022-07-29T14:47:33;5.40;;;3.03;;
48092;SDS011;33873;47.442;18.902;2022-07-29T14:50:02;6.93;;;3.60;;
48092;SDS011;33873;47.442;18.902;2022-07-29T14:52:31;6.87;;;3.47;;
48092;SDS011;33873;47.442;18.902;2022-07-29T14:54:59;8.70;;;3.20;;
48092;SDS011;33873;47.442;18.902;2022-07-29T14:57:26;6.68;;;3.00;;
48092;SDS011;33873;47.442;18.902;2022-07-29T14:59:54;4.85;;;2.87;;
48092;SDS011;33873;47.442;18.902;2022-07-29T15:02:21;8.88;;;3.47;;
48092;SDS011;33873;47.442;18.902;2022-07-29T15:05:02;6.37;;;3.20;;
48092;SDS011;33873;47.442;18.902;2022-07-29T15:07:30;10.45;;;3.65;;
48092;SDS011;33873;47.442;18.902;2022-07-29T15:09:57;6.25;;;3.10;;
48092;SDS011;33873;47.442;18.902;2022-07-29T15:12:26;5.78;;;3.22;;
48092;SDS011;33873;47.442;18.902;2022-07-29T15:14:53;5.65;;;3.28;;
48092;SDS011;33873;47.442;18.902;2022-07-29T15:17:21;7.85;;;3.20;;
48092;SDS011;33873;47.442;18.902;2022-07-29T15:19:49;5.72;;;3.08;;
48092;SDS011;33873;47.442;18.902;2022-07-29T15:22:16;4.87;;;2.95;;
48092;SDS011;33873;47.442;18.902;2022-07-29T15:24:44;6.97;;;3.20;;
48092;SDS011;33873;47.442;18.902;2022-07-29T15:27:12;4.85;;;3.05;;
48092;SDS011;33873;47.442;18.902;2022-07-29T15:29:41;7.97;;;2.87;;
48092;SDS011;33873;47.442;18.902;2022-07-29T15:32:09;7.22;;;3.53;;
48092;SDS011;33873;47.442;18.902;2022-07-29T15:34:37;5.20;;;3.05;;
48092;SDS011;33873;47.442;18.902;2022-07-29T15:37:05;6.37;;;3.08;;
48092;SDS011;33873;47.442;18.902;2022-07-29T15:39:33;6.57;;;3.40;;
48092;SDS011;33873;47.442;18.902;2022-07-29T15:42:01;5.80;;;3.47;;
48092;SDS011;33873;47.442;18.902;2022-07-29T15:44:29;7.28;;;3.47;;